KLOU

Bowman Field Airport

Louisville, Kentucky, USA
METAR KLOU 171953Z 29009G17KT 10SM CLR 18/03 A3028 RMK AO2 SLP253 T01830028
Observed Flight Rules
Oct-17 @ 19:53 UTC (59 minutes ago) Visual Flight Rules
Wind Visibility Clouds
290° at 9 knots
 Gusting to 17 knots
10 miles
  • Clear skies
Temperatures Readings
Current 18°C / 64°F
Dewpoint 3°C / 37°F
Humidity 37%
Altimeter 30.28" Hg
Pressure 1025.3 hPa
Elevation 164
METAR KLOU 171953Z 29009G17KT 10SM CLR 18/03 A3028 RMK AO2 SLP253 T01830028
Observed Flight Rules
Oct-17 @ 19:53 UTC
(59 minutes ago)
VFR
Wind Visibility
290° at 9 knots
 Gusting to 17 knots
10 miles
Clouds
  • Clear skies
Temperature Dewpoint
18°C / 64°F 3°C / 37°F
Humidity Altimeter Pressure
37% 30.28" Hg 1025.3 hPa